createdAt,value
2023-01-04T00:02:04.597Z,99498.06
2023-01-04T00:04:33.128Z,99499.78
2023-01-04T00:07:01.369Z,99492.09
2023-01-04T00:09:29.798Z,99481.06
2023-01-04T00:11:59.612Z,99482.00
2023-01-04T00:14:27.885Z,99493.94
2023-01-04T00:16:56.162Z,99495.66
2023-01-04T00:19:24.644Z,99481.22
2023-01-04T00:21:53.426Z,99485.47
2023-01-04T00:24:22.402Z,99475.25
2023-01-04T00:26:51.162Z,99477.84
2023-01-04T00:29:20.877Z,99465.91
2023-01-04T00:31:49.411Z,99464.19
2023-01-04T00:34:19.232Z,99455.72
2023-01-04T00:36:48.043Z,99442.94
2023-01-04T00:39:18.119Z,99434.41
2023-01-04T00:42:04.977Z,99435.31
2023-01-04T00:44:36.145Z,99430.19
2023-01-04T00:47:05.828Z,99433.59
2023-01-04T00:49:34.377Z,99430.16
2023-01-04T00:52:03.228Z,99424.25
2023-01-04T00:54:31.698Z,99430.19
2023-01-04T00:57:01.285Z,99423.41
2023-01-04T00:59:29.952Z,99423.41
2023-01-04T01:02:00.050Z,99424.28
2023-01-04T01:04:28.594Z,99423.44
2023-01-04T01:06:57.006Z,99425.16
2023-01-04T01:09:25.539Z,99425.16
2023-01-04T01:11:55.262Z,99431.94
2023-01-04T01:14:26.911Z,99439.59
2023-01-04T01:16:58.511Z,99443.00
2023-01-04T01:19:30.526Z,99431.03
2023-01-04T01:21:59.402Z,99431.94
2023-01-04T01:24:28.603Z,99423.44
2023-01-04T01:26:57.519Z,99424.28
2023-01-04T01:29:25.908Z,99431.94
2023-01-04T01:31:54.612Z,99431.91
2023-01-04T01:34:23.076Z,99429.38
2023-01-04T01:36:52.774Z,99440.47
2023-01-04T01:39:21.253Z,99441.31
2023-01-04T01:41:49.782Z,99451.53
2023-01-04T01:45:10.831Z,99449.00
2023-01-04T01:47:44.705Z,99457.53
2023-01-04T01:50:24.661Z,99454.16
2023-01-04T01:52:56.126Z,99450.75
2023-01-04T01:55:25.061Z,99453.28
2023-01-04T01:57:55.920Z,99452.47
2023-01-04T02:00:24.190Z,99444.81
2023-01-04T02:03:04.337Z,99430.31
2023-01-04T02:05:33.754Z,99435.44
2023-01-04T02:08:05.160Z,99430.34
2023-01-04T02:10:34.115Z,99438.03
2023-01-04T02:13:07.352Z,99439.72
2023-01-04T02:15:53.660Z,99431.25
2023-01-04T02:18:28.289Z,99427.81
2023-01-04T02:21:03.690Z,99426.13
2023-01-04T02:24:19.189Z,99419.38
2023-01-04T02:27:32.608Z,99418.53
2023-01-04T02:30:55.733Z,99410.00
2023-01-04T02:33:38.960Z,99410.03
2023-01-04T02:36:19.508Z,99413.41
2023-01-04T02:39:06.518Z,99403.16
2023-01-04T02:41:39.188Z,99397.25
2023-01-04T02:44:33.783Z,99397.25
2023-01-04T02:47:07.971Z,99391.31
2023-01-04T02:49:56.698Z,99398.13
2023-01-04T02:52:29.655Z,99394.69
2023-01-04T02:54:59.311Z,99383.66
2023-01-04T02:57:42.758Z,99381.94
2023-01-04T03:00:34.497Z,99382.78
2023-01-04T03:03:36.573Z,99381.94
2023-01-04T03:06:18.332Z,99380.25
2023-01-04T03:09:04.346Z,99376.88
2023-01-04T03:12:02.973Z,99376.00
2023-01-04T03:14:37.450Z,99368.34
2023-01-04T03:17:12.686Z,99367.50
2023-01-04T03:19:55.003Z,99359.00
2023-01-04T03:22:49.509Z,99350.47
2023-01-04T03:25:42.370Z,99347.94
2023-01-04T03:28:32.003Z,99343.69
2023-01-04T03:31:25.681Z,99340.28
2023-01-04T03:34:17.419Z,99342.00
2023-01-04T03:37:01.977Z,99344.59
2023-01-04T03:39:59.174Z,99342.88
2023-01-04T03:42:52.389Z,99337.78
2023-01-04T03:45:43.021Z,99338.69
2023-01-04T03:48:32.350Z,99342.91
2023-01-04T03:51:15.484Z,99342.06
2023-01-04T03:53:59.353Z,99346.31
2023-01-04T03:56:30.252Z,99337.00
2023-01-04T04:01:29.363Z,99342.13
2023-01-04T04:04:15.355Z,99334.50
2023-01-04T04:07:02.349Z,99333.63
2023-01-04T04:09:32.496Z,99330.22
2023-01-04T04:12:00.714Z,99332.78
2023-01-04T04:14:29.366Z,99325.97
2023-01-04T04:16:57.732Z,99319.13
2023-01-04T04:19:25.984Z,99326.81
2023-01-04T04:21:54.475Z,99321.66
2023-01-04T04:24:25.812Z,99322.53
2023-01-04T04:26:56.518Z,99316.56
2023-01-04T04:29:25.649Z,99316.56
2023-01-04T04:31:54.235Z,99311.44
2023-01-04T04:34:22.560Z,99310.59
2023-01-04T04:36:51.040Z,99306.34
2023-01-04T04:39:19.489Z,99307.13
2023-01-04T04:41:46.822Z,99310.56
2023-01-04T04:44:19.371Z,99313.91
2023-01-04T04:46:48.864Z,99307.94
2023-01-04T04:49:18.438Z,99301.94
2023-01-04T04:51:47.989Z,99298.53
2023-01-04T04:54:20.036Z,99291.72
2023-01-04T04:56:49.090Z,99289.97
2023-01-04T04:59:18.934Z,99284.00
2023-01-04T05:01:47.535Z,99282.25
2023-01-04T05:04:16.929Z,99284.81
2023-01-04T05:06:47.061Z,99274.59
2023-01-04T05:09:16.388Z,99275.38
2023-01-04T05:12:02.553Z,99281.38
2023-01-04T05:14:32.380Z,99291.53
2023-01-04T05:17:00.821Z,99287.28
2023-01-04T05:19:29.413Z,99289.81
2023-01-04T05:21:57.767Z,99293.19
2023-01-04T05:24:26.053Z,99298.28
2023-01-04T05:26:54.508Z,99304.22
2023-01-04T05:29:40.599Z,99297.41
2023-01-04T05:32:10.274Z,99288.03
2023-01-04T05:34:38.680Z,99289.69
2023-01-04T05:37:06.985Z,99278.59
2023-01-04T05:39:35.350Z,99277.72
2023-01-04T05:42:21.224Z,99281.97
2023-01-04T05:44:49.549Z,99278.59
2023-01-04T05:47:19.542Z,99283.63
2023-01-04T05:49:48.418Z,99287.06
2023-01-04T05:52:16.967Z,99291.28
2023-01-04T05:54:45.293Z,99285.31
2023-01-04T05:57:14.125Z,99288.63
2023-01-04T05:59:42.495Z,99275.03
2023-01-04T06:02:18.826Z,99275.06
2023-01-04T06:04:51.494Z,99266.50
2023-01-04T06:07:23.530Z,99272.44
2023-01-04T06:09:51.835Z,99263.06
2023-01-04T06:12:20.386Z,99267.22
2023-01-04T06:14:48.656Z,99262.97
2023-01-04T06:17:18.760Z,99260.38
2023-01-04T06:19:47.074Z,99254.34
2023-01-04T06:22:15.788Z,99252.59
2023-01-04T06:24:44.120Z,99247.47
2023-01-04T06:27:12.891Z,99262.69
2023-01-04T06:29:41.252Z,99263.41
2023-01-04T06:32:09.606Z,99258.22
2023-01-04T06:34:39.340Z,99269.31
2023-01-04T06:37:07.722Z,99260.69
2023-01-04T06:39:37.073Z,99258.19
2023-01-04T06:42:06.907Z,99259.75
2023-01-04T06:44:35.701Z,99258.13
2023-01-04T06:47:03.952Z,99245.31
2023-01-04T06:49:32.260Z,99255.53
2023-01-04T06:52:01.821Z,99254.63
2023-01-04T06:54:32.677Z,99259.72
2023-01-04T06:57:00.922Z,99264.88
2023-01-04T06:59:29.313Z,99256.38
2023-01-04T07:01:57.753Z,99264.88
2023-01-04T07:04:26.434Z,99253.84
2023-01-04T07:06:54.719Z,99260.56
2023-01-04T07:09:24.598Z,99252.03
2023-01-04T07:11:52.948Z,99255.41
2023-01-04T07:14:21.483Z,99252.88
2023-01-04T07:16:49.826Z,99252.06
2023-01-04T07:19:18.549Z,99252.06
2023-01-04T07:21:46.971Z,99255.41
2023-01-04T07:24:17.358Z,99244.31
2023-01-04T07:26:46.944Z,99243.44
2023-01-04T07:29:17.028Z,99251.13
2023-01-04T07:31:48.769Z,99248.56
2023-01-04T07:34:19.928Z,99245.19
2023-01-04T07:36:48.826Z,99246.00
2023-01-04T07:39:18.841Z,99246.00
2023-01-04T07:41:50.638Z,99238.34
2023-01-04T07:44:22.536Z,99233.25
2023-01-04T07:46:50.857Z,99228.13
2023-01-04T07:49:19.599Z,99233.22
2023-01-04T07:51:48.919Z,99233.09
2023-01-04T07:54:18.214Z,99231.44
2023-01-04T07:56:49.059Z,99233.94
2023-01-04T07:59:20.645Z,99224.63
2023-01-04T08:01:51.060Z,99230.63
2023-01-04T08:04:25.271Z,99228.06
2023-01-04T08:06:56.765Z,99215.28
2023-01-04T08:09:25.072Z,99217.84
2023-01-04T08:11:54.700Z,99209.34
2023-01-04T08:14:23.335Z,99209.28
2023-01-04T08:16:52.924Z,99204.06
2023-01-04T08:19:22.505Z,99203.97
2023-01-04T08:21:50.857Z,99201.44
2023-01-04T08:24:21.061Z,99193.72
2023-01-04T08:26:49.589Z,99186.84
2023-01-04T08:29:19.560Z,99191.09
2023-01-04T08:31:48.091Z,99194.53
2023-01-04T08:34:16.530Z,99200.41
2023-01-04T08:36:50.228Z,99202.13
2023-01-04T08:39:19.112Z,99187.53
2023-01-04T08:41:59.694Z,99180.63
2023-01-04T08:44:34.441Z,99187.41
2023-01-04T08:47:02.916Z,99178.00
2023-01-04T08:49:31.426Z,99164.38
2023-01-04T08:51:59.776Z,99157.44
2023-01-04T08:54:28.493Z,99161.78
2023-01-04T08:56:57.015Z,99146.41
2023-01-04T08:59:25.816Z,99147.22
2023-01-04T09:02:01.150Z,99165.09
2023-01-04T09:04:33.111Z,99165.03
2023-01-04T09:07:01.445Z,99162.53
2023-01-04T09:09:30.536Z,99149.72
2023-01-04T09:11:59.511Z,99166.72
2023-01-04T09:14:28.088Z,99165.88
2023-01-04T09:16:57.909Z,99167.53
2023-01-04T09:19:26.176Z,99161.47
2023-01-04T09:21:54.459Z,99162.41
2023-01-04T09:24:23.064Z,99165.66
2023-01-04T09:26:51.596Z,99157.94
2023-01-04T09:29:20.009Z,99153.53
2023-01-04T09:31:48.546Z,99165.38
2023-01-04T09:34:18.657Z,99163.56
2023-01-04T09:36:49.112Z,99170.28
2023-01-04T09:39:23.122Z,99168.56
2023-01-04T09:41:58.548Z,99172.56
2023-01-04T09:47:37.127Z,99164.53
2023-01-04T09:50:15.245Z,99156.69
2023-01-04T09:53:06.094Z,99171.97
2023-01-04T09:55:41.611Z,99156.50
2023-01-04T09:58:24.479Z,99163.19
2023-01-04T10:01:01.310Z,99154.56
2023-01-04T10:03:33.455Z,99151.88
2023-01-04T10:06:04.314Z,99150.88
2023-01-04T10:08:32.812Z,99137.16
2023-01-04T10:11:28.180Z,99131.06
2023-01-04T10:14:29.252Z,99123.22
2023-01-04T10:17:20.633Z,99114.47
2023-01-04T10:23:57.618Z,99098.03
2023-01-04T10:26:30.078Z,99097.09
2023-01-04T10:29:25.137Z,99094.47
2023-01-04T10:31:58.903Z,99113.09
2023-01-04T10:34:30.802Z,99105.44
2023-01-04T10:37:02.199Z,99104.50
2023-01-04T10:39:35.827Z,99104.47
2023-01-04T10:42:15.963Z,99088.13
2023-01-04T10:45:01.932Z,99100.91
2023-01-04T10:47:44.381Z,99084.66
2023-01-04T10:50:21.420Z,99075.81
2023-01-04T10:52:54.947Z,99093.63
2023-01-04T10:55:31.137Z,99088.44
2023-01-04T10:58:03.905Z,99092.53
2023-01-04T11:00:38.620Z,99089.84
2023-01-04T11:03:14.846Z,99079.50
2023-01-04T11:05:47.058Z,99078.47
2023-01-04T11:08:20.644Z,99068.19
2023-01-04T11:10:55.799Z,99062.03
2023-01-04T11:13:24.793Z,99063.75
2023-01-04T11:15:53.956Z,99048.97
2023-01-04T11:18:22.536Z,99070.22
2023-01-04T11:20:51.174Z,99058.03
2023-01-04T11:23:21.331Z,99047.78
2023-01-04T11:25:56.580Z,99045.88
2023-01-04T11:28:29.424Z,99038.09
2023-01-04T11:31:05.129Z,99043.09
2023-01-04T11:33:53.847Z,99026.84
2023-01-04T11:36:40.768Z,99031.00
2023-01-04T11:39:23.361Z,99029.97
2023-01-04T11:42:03.363Z,99037.69
2023-01-04T11:44:33.910Z,99022.16
2023-01-04T11:47:13.409Z,99016.06
2023-01-04T11:49:41.756Z,99011.75
2023-01-04T11:52:31.386Z,99015.88
2023-01-04T11:55:18.544Z,99026.06
2023-01-04T11:57:48.252Z,99034.66
2023-01-04T12:00:18.179Z,99024.28
2023-01-04T12:03:04.555Z,99034.72
2023-01-04T12:05:33.768Z,99036.84
2023-01-04T12:08:02.011Z,99018.91
2023-01-04T12:10:30.471Z,99023.16
2023-01-04T12:13:02.793Z,99023.97
2023-01-04T12:15:40.966Z,99012.78
2023-01-04T12:18:17.747Z,99008.63
2023-01-04T12:20:46.782Z,99014.59
2023-01-04T12:23:15.494Z,99005.28
2023-01-04T12:25:49.502Z,99001.72
2023-01-04T12:28:39.047Z,99002.50
2023-01-04T12:31:33.957Z,99002.34
2023-01-04T12:34:42.426Z,99004.00
2023-01-04T12:37:11.837Z,99003.06
2023-01-04T12:39:47.574Z,98991.53
2023-01-04T12:42:28.063Z,99000.94
2023-01-04T12:45:19.266Z,98991.34
2023-01-04T12:48:10.683Z,98990.41
2023-01-04T12:51:34.553Z,98986.78
2023-01-04T12:54:11.952Z,98979.88
2023-01-04T12:57:25.746Z,98979.72
2023-01-04T12:59:57.598Z,98977.16
2023-01-04T13:02:29.199Z,98975.22
2023-01-04T13:05:43.819Z,98966.41
2023-01-04T13:07:51.720Z,98960.28
2023-01-04T13:10:30.227Z,98968.91
2023-01-04T13:13:27.230Z,98956.78
2023-01-04T13:16:15.159Z,98954.00
2023-01-04T13:18:49.006Z,98952.09
2023-01-04T13:21:23.422Z,98927.13
2023-01-04T13:23:55.271Z,98944.09
2023-01-04T13:26:40.448Z,98943.13
2023-01-04T13:29:19.981Z,98941.56
2023-01-04T13:31:58.708Z,98950.72
2023-01-04T13:34:33.180Z,98948.09
2023-01-04T13:37:09.222Z,98948.25
2023-01-04T13:39:39.728Z,98947.25
2023-01-04T13:42:15.402Z,98928.13
2023-01-04T13:45:32.257Z,98936.75
2023-01-04T13:48:03.806Z,98937.34
2023-01-04T13:50:37.561Z,98925.34
2023-01-04T13:53:08.672Z,98913.38
2023-01-04T13:55:39.165Z,98918.47
2023-01-04T13:58:16.964Z,98912.38
2023-01-04T14:00:49.598Z,98906.88
2023-01-04T14:03:30.278Z,98911.00
2023-01-04T14:06:16.201Z,98903.28
2023-01-04T14:08:52.341Z,98893.63
2023-01-04T14:11:42.762Z,98903.94
2023-01-04T14:14:31.180Z,98880.41
2023-01-04T14:17:28.299Z,98895.81
2023-01-04T14:19:58.867Z,98901.94
2023-01-04T14:22:54.506Z,98888.91
2023-01-04T14:25:44.773Z,98894.19
2023-01-04T14:28:48.685Z,98890.66
2023-01-04T14:31:33.387Z,98893.19
2023-01-04T14:34:09.435Z,98890.66
2023-01-04T14:36:40.375Z,98884.53
2023-01-04T14:39:33.579Z,98886.47
2023-01-04T14:42:02.160Z,98884.53
2023-01-04T14:44:35.764Z,98884.44
2023-01-04T14:47:07.393Z,98896.63
2023-01-04T14:49:35.903Z,98883.72
2023-01-04T14:52:11.459Z,98900.91
2023-01-04T14:54:42.463Z,98892.34
2023-01-04T14:57:11.119Z,98878.56
2023-01-04T14:59:39.404Z,98868.13
2023-01-04T15:02:08.131Z,98857.22
2023-01-04T15:04:36.499Z,98863.13
2023-01-04T15:07:04.986Z,98883.09
2023-01-04T15:09:33.494Z,98870.84
2023-01-04T15:12:03.532Z,98850.13
2023-01-04T15:14:31.841Z,98868.06
2023-01-04T15:17:00.302Z,98878.38
2023-01-04T15:19:34.129Z,98869.91
2023-01-04T15:22:05.886Z,98855.34
2023-01-04T15:24:34.398Z,98844.97
2023-01-04T15:27:04.062Z,98860.44
2023-01-04T15:29:32.372Z,98841.56
2023-01-04T15:32:00.892Z,98857.22
2023-01-04T15:34:29.275Z,98844.97
2023-01-04T15:36:57.840Z,98832.03
2023-01-04T15:39:26.149Z,98832.03
2023-01-04T15:42:26.327Z,98831.31
2023-01-04T15:44:56.119Z,98823.81
2023-01-04T15:47:24.490Z,98838.97
2023-01-04T15:49:52.789Z,98824.16
2023-01-04T15:52:21.300Z,98827.84
2023-01-04T15:54:49.685Z,98826.16
2023-01-04T15:57:18.041Z,98840.81
2023-01-04T15:59:47.915Z,98836.59
2023-01-04T16:02:17.745Z,98839.94
2023-01-04T16:04:47.331Z,98834.66
2023-01-04T16:07:15.751Z,98833.75
2023-01-04T16:09:44.071Z,98836.34
2023-01-04T16:12:30.237Z,98820.19
2023-01-04T16:14:58.557Z,98823.41
2023-01-04T16:17:28.476Z,98837.84
2023-01-04T16:19:56.886Z,98839.59
2023-01-04T16:22:25.342Z,98821.59
2023-01-04T16:25:10.261Z,98819.88
2023-01-04T16:27:39.660Z,98830.13
2023-01-04T16:30:13.856Z,98822.38
2023-01-04T16:32:45.835Z,98820.75
2023-01-04T16:35:14.143Z,98817.16
2023-01-04T16:37:43.082Z,98808.78
2023-01-04T16:40:13.311Z,98807.88
2023-01-04T16:42:43.108Z,98810.22
2023-01-04T16:45:12.673Z,98798.03
2023-01-04T16:47:44.109Z,98805.66
2023-01-04T16:50:13.193Z,98796.94
2023-01-04T16:52:41.845Z,98787.41
2023-01-04T16:55:11.495Z,98775.34
2023-01-04T16:57:39.833Z,98793.59
2023-01-04T17:00:10.308Z,98784.75
2023-01-04T17:02:38.746Z,98792.44
2023-01-04T17:05:09.794Z,98787.28
2023-01-04T17:07:38.210Z,98791.75
2023-01-04T17:10:08.272Z,98808.09
2023-01-04T17:12:47.123Z,98803.84
2023-01-04T17:15:42.325Z,98800.22
2023-01-04T17:18:05.482Z,98783.69
2023-01-04T17:20:37.923Z,98785.59
2023-01-04T17:23:06.232Z,98793.31
2023-01-04T17:25:34.645Z,98786.44
2023-01-04T17:28:03.098Z,98780.19
2023-01-04T17:30:31.399Z,98795.06
2023-01-04T17:32:59.727Z,98764.72
2023-01-04T17:35:28.043Z,98771.63
2023-01-04T17:37:57.674Z,98772.69
2023-01-04T17:40:25.939Z,98772.34
2023-01-04T17:42:54.472Z,98765.38
2023-01-04T17:45:23.120Z,98780.06
2023-01-04T17:47:51.493Z,98785.22
2023-01-04T17:50:20.499Z,98766.28
2023-01-04T17:52:50.643Z,98773.22
2023-01-04T17:55:21.647Z,98787.94
2023-01-04T17:57:50.092Z,98760.28
2023-01-04T18:00:19.120Z,98761.81
2023-01-04T18:02:47.448Z,98769.75
2023-01-04T18:05:15.973Z,98776.72
2023-01-04T18:07:44.482Z,98765.44
2023-01-04T18:10:26.774Z,98797.41
2023-01-04T18:13:05.510Z,98765.47
2023-01-04T18:15:43.550Z,98777.53
2023-01-04T18:18:12.495Z,98753.38
2023-01-04T18:20:41.038Z,98773.09
2023-01-04T18:23:19.038Z,98765.44
2023-01-04T18:25:52.537Z,98764.34
2023-01-04T18:28:23.816Z,98755.97
2023-01-04T18:30:52.083Z,98762.78
2023-01-04T18:33:20.464Z,98762.06
2023-01-04T18:35:48.734Z,98780.84
2023-01-04T18:38:17.135Z,98754.13
2023-01-04T18:40:45.421Z,98773.22
2023-01-04T18:43:13.645Z,98767.09
2023-01-04T18:45:43.376Z,98763.06
2023-01-04T18:48:11.728Z,98769.03
2023-01-04T18:50:40.137Z,98781.22
2023-01-04T18:53:08.481Z,98776.13
2023-01-04T18:55:39.277Z,98770.19
2023-01-04T18:58:07.710Z,98771.94
2023-01-04T19:00:35.978Z,98781.34
2023-01-04T19:03:05.978Z,98769.28
2023-01-04T19:05:34.450Z,98764.13
2023-01-04T19:08:03.221Z,98783.84
2023-01-04T19:10:31.518Z,98808.03
2023-01-04T19:12:59.784Z,98760.66
2023-01-04T19:15:28.192Z,98770.00
2023-01-04T19:17:57.091Z,98772.69
2023-01-04T19:20:28.900Z,98758.94
2023-01-04T19:22:57.344Z,98774.25
2023-01-04T19:25:28.401Z,98761.34
2023-01-04T19:27:57.275Z,98755.25
2023-01-04T19:30:25.804Z,98768.84
2023-01-04T19:32:54.138Z,98755.03
2023-01-04T19:35:22.567Z,98761.88
2023-01-04T19:37:52.348Z,98774.13
2023-01-04T19:40:20.704Z,98778.25
2023-01-04T19:42:49.168Z,98779.41
2023-01-04T19:45:17.710Z,98795.66
2023-01-04T19:47:46.401Z,98799.19
2023-01-04T19:50:14.816Z,98765.81
2023-01-04T19:52:43.177Z,98789.09
2023-01-04T19:55:13.309Z,98783.94
2023-01-04T19:57:42.003Z,98783.59
2023-01-04T20:00:12.122Z,98790.22
2023-01-04T20:02:40.708Z,98803.25
2023-01-04T20:05:09.836Z,98792.09
2023-01-04T20:07:38.244Z,98815.25
2023-01-04T20:10:13.793Z,98806.72
2023-01-04T20:12:44.205Z,98812.91
2023-01-04T20:15:14.191Z,98805.16
2023-01-04T20:17:42.663Z,98814.66
2023-01-04T20:20:11.505Z,98801.69
2023-01-04T20:22:39.866Z,98822.56
2023-01-04T20:25:09.205Z,98826.75
2023-01-04T20:27:37.692Z,98821.88
2023-01-04T20:30:09.643Z,98799.59
2023-01-04T20:32:38.745Z,98791.22
2023-01-04T20:35:08.510Z,98814.16
2023-01-04T20:37:36.841Z,98808.13
2023-01-04T20:40:06.292Z,98821.13
2023-01-04T20:42:53.757Z,98808.25
2023-01-04T20:45:23.426Z,98806.31
2023-01-04T20:47:51.700Z,98793.81
2023-01-04T20:50:19.935Z,98816.75
2023-01-04T20:56:12.757Z,98790.91
2023-01-04T20:58:41.420Z,98839.81
2023-01-04T21:01:11.516Z,98802.13
2023-01-04T21:03:39.941Z,98797.75
2023-01-04T21:06:10.675Z,98806.38
2023-01-04T21:08:41.369Z,98806.38
2023-01-04T21:11:11.570Z,98802.97
2023-01-04T21:13:40.327Z,98800.50
2023-01-04T21:16:10.534Z,98802.97
2023-01-04T21:18:39.379Z,98806.31
2023-01-04T21:21:09.507Z,98802.91
2023-01-04T21:23:38.169Z,98803.63
2023-01-04T21:26:08.827Z,98802.78
2023-01-04T21:28:37.308Z,98800.13
2023-01-04T21:31:12.721Z,98819.88
2023-01-04T21:33:41.104Z,98800.22
2023-01-04T21:36:14.637Z,98806.91
2023-01-04T21:38:43.537Z,98794.25
2023-01-04T21:41:15.141Z,98798.47
2023-01-04T21:43:44.692Z,98800.94
2023-01-04T21:46:16.181Z,98800.00
2023-01-04T21:48:46.461Z,98796.41
2023-01-04T21:51:15.926Z,98785.34
2023-01-04T21:53:44.376Z,98783.44
2023-01-04T21:56:15.423Z,98799.63
2023-01-04T21:58:44.870Z,98771.28
2023-01-04T22:01:17.676Z,98777.34
2023-01-04T22:03:46.269Z,98770.44
2023-01-04T22:06:15.230Z,98766.00
2023-01-04T22:08:44.097Z,98759.16
2023-01-04T22:11:13.259Z,98756.59
2023-01-04T22:13:44.282Z,98750.53
2023-01-04T22:16:16.864Z,98753.94
2023-01-04T22:18:49.039Z,98758.38
2023-01-04T22:21:20.400Z,98757.31
2023-01-04T22:23:48.793Z,98753.78
2023-01-04T22:26:17.590Z,98731.25
2023-01-04T22:28:46.267Z,98732.22
2023-01-04T22:31:16.398Z,98736.59
2023-01-04T22:33:44.950Z,98726.09
2023-01-04T22:36:22.373Z,98734.84
2023-01-04T22:38:52.901Z,98726.25
2023-01-04T22:41:23.625Z,98732.22
2023-01-04T22:43:56.601Z,98727.84
2023-01-04T22:46:27.794Z,98721.84
2023-01-04T22:48:56.726Z,98720.06
2023-01-04T22:51:27.536Z,98731.97
2023-01-04T22:53:57.317Z,98731.13
2023-01-04T22:56:26.301Z,98719.06
2023-01-04T22:58:57.182Z,98716.63
2023-01-04T23:01:30.331Z,98716.56
2023-01-04T23:04:00.221Z,98708.03
2023-01-04T23:06:30.294Z,98701.16
2023-01-04T23:09:01.169Z,98696.06
2023-01-04T23:11:32.003Z,98699.34
2023-01-04T23:14:02.972Z,98702.97
2023-01-04T23:16:33.722Z,98690.00
2023-01-04T23:19:02.856Z,98693.22
2023-01-04T23:21:31.899Z,98687.38
2023-01-04T23:24:01.305Z,98685.41
2023-01-04T23:26:32.249Z,98695.16
2023-01-04T23:29:01.883Z,98694.97
2023-01-04T23:31:33.876Z,98676.06
2023-01-04T23:34:05.501Z,98669.94
2023-01-04T23:36:37.150Z,98670.72
2023-01-04T23:39:08.455Z,98677.69
2023-01-04T23:41:46.838Z,98671.56
2023-01-04T23:44:19.588Z,98673.31
2023-01-04T23:46:53.546Z,98688.78
2023-01-04T23:49:22.836Z,98677.69
2023-01-04T23:51:51.363Z,98667.69
2023-01-04T23:54:20.614Z,98675.38
2023-01-04T23:56:49.227Z,98652.69
2023-01-04T23:59:17.557Z,98654.34
